sensor_id;sensor_type;location;lat;lon;timestamp;pressure;altitude;pressure_sealevel;temperature;humidity
55994;BME280;67425;52.126;20.638;2023-09-19T00:01:14;57524.66;;;-144.78;63.71
55994;BME280;67425;52.126;20.638;2023-09-19T00:03:40;57551.66;;;-144.78;64.06
55994;BME280;67425;52.126;20.638;2023-09-19T00:06:07;57522.56;;;-144.78;62.96
55994;BME280;67425;52.126;20.638;2023-09-19T00:08:33;57510.13;;;-144.78;63.39
55994;BME280;67425;52.126;20.638;2023-09-19T00:10:59;57528.81;;;-144.78;63.63
55994;BME280;67425;52.126;20.638;2023-09-19T00:13:32;57520.50;;;-144.78;63.37
55994;BME280;67425;52.126;20.638;2023-09-19T00:15:57;57514.25;;;-144.78;63.21
55994;BME280;67425;52.126;20.638;2023-09-19T00:18:24;57532.97;;;-144.78;62.71
55994;BME280;67425;52.126;20.638;2023-09-19T00:20:57;57491.41;;;-144.78;63.76
55994;BME280;67425;52.126;20.638;2023-09-19T00:23:22;57530.88;;;-144.78;63.91
55994;BME280;67425;52.126;20.638;2023-09-19T00:25:48;57514.25;;;-144.78;63.73
55994;BME280;67425;52.126;20.638;2023-09-19T00:28:13;57520.50;;;-144.78;63.40
55994;BME280;67425;52.126;20.638;2023-09-19T00:30:45;57497.66;;;-144.78;62.53
55994;BME280;67425;52.126;20.638;2023-09-19T00:33:15;57499.72;;;-144.78;62.20
55994;BME280;67425;52.126;20.638;2023-09-19T00:35:48;57505.97;;;-144.78;61.89
55994;BME280;67425;52.126;20.638;2023-09-19T00:38:13;57512.19;;;-144.78;61.86
55994;BME280;67425;52.126;20.638;2023-09-19T00:40:44;57526.72;;;-144.78;62.05
55994;BME280;67425;52.126;20.638;2023-09-19T00:43:09;57526.72;;;-144.78;61.94
55994;BME280;67425;52.126;20.638;2023-09-19T00:45:36;57512.19;;;-144.78;61.50
55994;BME280;67425;52.126;20.638;2023-09-19T00:48:04;57512.19;;;-144.78;62.12
55994;BME280;67425;52.126;20.638;2023-09-19T00:50:37;57497.66;;;-144.78;62.09
55994;BME280;67425;52.126;20.638;2023-09-19T00:53:07;57503.88;;;-144.78;62.27
55994;BME280;67425;52.126;20.638;2023-09-19T00:55:33;57516.34;;;-144.78;62.47
55994;BME280;67425;52.126;20.638;2023-09-19T00:58:00;57510.13;;;-144.78;63.23
55994;BME280;67425;52.126;20.638;2023-09-19T01:00:26;57520.50;;;-144.78;62.59
55994;BME280;67425;52.126;20.638;2023-09-19T01:02:51;57522.56;;;-144.78;62.43
55994;BME280;67425;52.126;20.638;2023-09-19T01:05:17;57530.88;;;-144.78;63.28
55994;BME280;67425;52.126;20.638;2023-09-19T01:07:43;57516.34;;;-144.78;62.77
55994;BME280;67425;52.126;20.638;2023-09-19T01:10:15;57503.88;;;-144.78;62.43
55994;BME280;67425;52.126;20.638;2023-09-19T01:15:32;57547.50;;;-144.78;62.92
55994;BME280;67425;52.126;20.638;2023-09-19T01:23:37;57524.66;;;-144.78;60.99
55994;BME280;67425;52.126;20.638;2023-09-19T01:28:51;57514.25;;;-144.78;61.97
55994;BME280;67425;52.126;20.638;2023-09-19T01:31:19;57539.19;;;-144.78;62.57
55994;BME280;67425;52.126;20.638;2023-09-19T01:33:59;57505.97;;;-144.78;62.55
55994;BME280;67425;52.126;20.638;2023-09-19T01:36:33;57512.19;;;-144.78;63.36
55994;BME280;67425;52.126;20.638;2023-09-19T01:39:02;57518.41;;;-144.78;62.77
55994;BME280;67425;52.126;20.638;2023-09-19T01:41:39;57530.88;;;-144.78;62.47
55994;BME280;67425;52.126;20.638;2023-09-19T01:44:09;57547.50;;;-144.78;61.82
55994;BME280;67425;52.126;20.638;2023-09-19T01:46:40;57510.13;;;-144.78;61.63
55994;BME280;67425;52.126;20.638;2023-09-19T01:52:10;57518.41;;;-144.78;61.52
55994;BME280;67425;52.126;20.638;2023-09-19T01:54:41;57535.03;;;-144.78;62.29
55994;BME280;67425;52.126;20.638;2023-09-19T01:57:32;57532.97;;;-144.78;61.97
55994;BME280;67425;52.126;20.638;2023-09-19T02:00:10;57541.25;;;-144.78;62.00
55994;BME280;67425;52.126;20.638;2023-09-19T02:02:42;57537.09;;;-144.78;62.54
55994;BME280;67425;52.126;20.638;2023-09-19T02:05:09;57516.34;;;-144.78;61.97
55994;BME280;67425;52.126;20.638;2023-09-19T02:07:35;57539.19;;;-144.78;62.03
55994;BME280;67425;52.126;20.638;2023-09-19T02:10:04;57524.66;;;-144.78;61.26
55994;BME280;67425;52.126;20.638;2023-09-19T02:12:31;57543.34;;;-144.78;62.09
55994;BME280;67425;52.126;20.638;2023-09-19T02:14:58;57512.19;;;-144.78;62.43
55994;BME280;67425;52.126;20.638;2023-09-19T02:17:26;57505.97;;;-144.78;62.03
55994;BME280;67425;52.126;20.638;2023-09-19T02:19:55;57514.25;;;-144.78;61.46
55994;BME280;67425;52.126;20.638;2023-09-19T02:22:21;57520.50;;;-144.78;62.17
55994;BME280;67425;52.126;20.638;2023-09-19T02:24:46;57510.13;;;-144.78;61.93
55994;BME280;67425;52.126;20.638;2023-09-19T02:27:13;57545.41;;;-144.78;63.47
55994;BME280;67425;52.126;20.638;2023-09-19T02:29:41;57535.03;;;-144.78;63.80
55994;BME280;67425;52.126;20.638;2023-09-19T02:32:06;57530.88;;;-144.78;63.00
55994;BME280;67425;52.126;20.638;2023-09-19T02:34:32;57522.56;;;-144.78;62.99
55994;BME280;67425;52.126;20.638;2023-09-19T02:36:57;57564.09;;;-144.78;62.78
55994;BME280;67425;52.126;20.638;2023-09-19T02:39:23;57526.72;;;-144.78;62.39
55994;BME280;67425;52.126;20.638;2023-09-19T02:41:49;57566.19;;;-144.78;63.12
55994;BME280;67425;52.126;20.638;2023-09-19T02:44:14;57495.56;;;-144.78;62.60
55994;BME280;67425;52.126;20.638;2023-09-19T02:46:39;57524.66;;;-144.78;62.44
55994;BME280;67425;52.126;20.638;2023-09-19T02:49:05;57518.41;;;-144.78;62.35
55994;BME280;67425;52.126;20.638;2023-09-19T02:51:32;57528.81;;;-144.78;61.91
55994;BME280;67425;52.126;20.638;2023-09-19T02:53:59;57514.25;;;-144.78;62.43
55994;BME280;67425;52.126;20.638;2023-09-19T02:56:24;57518.41;;;-144.78;61.67
55994;BME280;67425;52.126;20.638;2023-09-19T02:58:50;57499.72;;;-144.78;61.33
55994;BME280;67425;52.126;20.638;2023-09-19T03:01:16;57539.19;;;-144.78;62.23
55994;BME280;67425;52.126;20.638;2023-09-19T03:03:43;57512.19;;;-144.78;61.07
55994;BME280;67425;52.126;20.638;2023-09-19T03:06:10;57528.81;;;-144.78;60.81
55994;BME280;67425;52.126;20.638;2023-09-19T03:08:36;57551.66;;;-144.78;61.57
55994;BME280;67425;52.126;20.638;2023-09-19T03:11:04;57545.41;;;-144.78;62.33
55994;BME280;67425;52.126;20.638;2023-09-19T03:13:31;57535.03;;;-144.78;62.74
55994;BME280;67425;52.126;20.638;2023-09-19T03:15:57;57535.03;;;-144.78;63.14
55994;BME280;67425;52.126;20.638;2023-09-19T03:18:24;57522.56;;;-144.78;62.46
55994;BME280;67425;52.126;20.638;2023-09-19T03:20:55;57537.09;;;-144.78;61.99
55994;BME280;67425;52.126;20.638;2023-09-19T03:23:20;57528.81;;;-144.78;62.24
55994;BME280;67425;52.126;20.638;2023-09-19T03:25:46;57530.88;;;-144.78;62.55
55994;BME280;67425;52.126;20.638;2023-09-19T03:28:13;57526.72;;;-144.78;62.21
55994;BME280;67425;52.126;20.638;2023-09-19T03:30:38;57537.09;;;-144.78;61.65
55994;BME280;67425;52.126;20.638;2023-09-19T03:33:04;57549.56;;;-144.78;61.89
55994;BME280;67425;52.126;20.638;2023-09-19T03:35:30;57528.81;;;-144.78;61.93
55994;BME280;67425;52.126;20.638;2023-09-19T03:37:56;57518.41;;;-144.78;62.45
55994;BME280;67425;52.126;20.638;2023-09-19T03:40:21;57528.81;;;-144.78;61.95
55994;BME280;67425;52.126;20.638;2023-09-19T03:42:48;57510.13;;;-144.78;61.65
55994;BME280;67425;52.126;20.638;2023-09-19T03:45:14;57524.66;;;-144.78;62.13
55994;BME280;67425;52.126;20.638;2023-09-19T03:47:41;57524.66;;;-144.78;62.27
55994;BME280;67425;52.126;20.638;2023-09-19T03:50:07;57557.88;;;-144.78;62.60
55994;BME280;67425;52.126;20.638;2023-09-19T03:52:33;57535.03;;;-144.78;62.14
55994;BME280;67425;52.126;20.638;2023-09-19T03:54:59;57532.97;;;-144.78;62.03
55994;BME280;67425;52.126;20.638;2023-09-19T03:57:24;57541.25;;;-144.78;61.38
55994;BME280;67425;52.126;20.638;2023-09-19T03:59:50;57514.25;;;-144.78;61.81
55994;BME280;67425;52.126;20.638;2023-09-19T04:02:18;57522.56;;;-144.78;62.29
55994;BME280;67425;52.126;20.638;2023-09-19T04:04:51;57514.25;;;-144.78;61.30
55994;BME280;67425;52.126;20.638;2023-09-19T04:07:17;57541.25;;;-144.78;62.16
55994;BME280;67425;52.126;20.638;2023-09-19T04:09:44;57532.97;;;-144.78;62.07
55994;BME280;67425;52.126;20.638;2023-09-19T04:12:09;57532.97;;;-144.78;61.77
55994;BME280;67425;52.126;20.638;2023-09-19T04:14:35;57539.19;;;-144.78;61.76
55994;BME280;67425;52.126;20.638;2023-09-19T04:17:00;57530.88;;;-144.78;62.36
55994;BME280;67425;52.126;20.638;2023-09-19T04:19:26;57497.66;;;-144.78;61.28
55994;BME280;67425;52.126;20.638;2023-09-19T04:21:51;57497.66;;;-144.78;60.78
55994;BME280;67425;52.126;20.638;2023-09-19T04:24:16;57522.56;;;-144.78;62.09
55994;BME280;67425;52.126;20.638;2023-09-19T04:26:44;57553.72;;;-144.78;62.88
55994;BME280;67425;52.126;20.638;2023-09-19T04:29:10;57535.03;;;-144.78;62.03
55994;BME280;67425;52.126;20.638;2023-09-19T04:31:38;57520.50;;;-144.78;61.12
55994;BME280;67425;52.126;20.638;2023-09-19T04:34:06;57535.03;;;-144.78;62.57
55994;BME280;67425;52.126;20.638;2023-09-19T04:36:31;57545.41;;;-144.78;62.03
55994;BME280;67425;52.126;20.638;2023-09-19T04:38:57;57541.25;;;-144.78;61.51
55994;BME280;67425;52.126;20.638;2023-09-19T04:41:22;57524.66;;;-144.78;60.96
55994;BME280;67425;52.126;20.638;2023-09-19T04:43:48;57520.50;;;-144.78;61.78
55994;BME280;67425;52.126;20.638;2023-09-19T04:46:16;57522.56;;;-144.78;61.50
55994;BME280;67425;52.126;20.638;2023-09-19T04:48:42;57518.41;;;-144.78;61.18
55994;BME280;67425;52.126;20.638;2023-09-19T04:51:08;57535.03;;;-144.78;60.88
55994;BME280;67425;52.126;20.638;2023-09-19T04:53:33;57512.19;;;-144.78;60.88
55994;BME280;67425;52.126;20.638;2023-09-19T04:55:58;57505.97;;;-144.78;60.55
55994;BME280;67425;52.126;20.638;2023-09-19T04:58:24;57508.03;;;-144.78;59.99
55994;BME280;67425;52.126;20.638;2023-09-19T05:00:49;57495.56;;;-144.78;60.41
55994;BME280;67425;52.126;20.638;2023-09-19T05:03:16;57547.50;;;-144.78;59.77
55994;BME280;67425;52.126;20.638;2023-09-19T05:05:42;57505.97;;;-144.78;60.31
55994;BME280;67425;52.126;20.638;2023-09-19T05:08:08;57526.72;;;-144.78;59.66
55994;BME280;67425;52.126;20.638;2023-09-19T05:10:34;57510.13;;;-144.78;59.69
55994;BME280;67425;52.126;20.638;2023-09-19T05:13:03;57535.03;;;-144.78;59.49
55994;BME280;67425;52.126;20.638;2023-09-19T05:15:29;57501.81;;;-144.78;59.93
55994;BME280;67425;52.126;20.638;2023-09-19T05:17:55;57491.41;;;-144.78;59.33
55994;BME280;67425;52.126;20.638;2023-09-19T05:20:21;57501.81;;;-144.78;59.18
55994;BME280;67425;52.126;20.638;2023-09-19T05:23:05;57493.50;;;-144.78;59.06
55994;BME280;67425;52.126;20.638;2023-09-19T05:25:33;57539.19;;;-144.78;59.62
55994;BME280;67425;52.126;20.638;2023-09-19T05:28:02;57497.66;;;-144.78;60.02
55994;BME280;67425;52.126;20.638;2023-09-19T05:30:30;57505.97;;;-144.78;59.50
55994;BME280;67425;52.126;20.638;2023-09-19T05:32:55;57522.56;;;-144.78;59.63
55994;BME280;67425;52.126;20.638;2023-09-19T05:35:22;57508.03;;;-144.78;59.45
55994;BME280;67425;52.126;20.638;2023-09-19T05:37:50;57514.25;;;-144.78;58.67
55994;BME280;67425;52.126;20.638;2023-09-19T05:40:18;57530.88;;;-144.78;58.51
55994;BME280;67425;52.126;20.638;2023-09-19T05:42:44;57505.97;;;-144.78;58.96
55994;BME280;67425;52.126;20.638;2023-09-19T05:45:10;57481.03;;;-144.78;58.54
55994;BME280;67425;52.126;20.638;2023-09-19T05:47:42;57497.66;;;-144.78;58.07
55994;BME280;67425;52.126;20.638;2023-09-19T05:50:08;57505.97;;;-144.78;58.19
55994;BME280;67425;52.126;20.638;2023-09-19T05:52:37;57501.81;;;-144.78;57.48
55994;BME280;67425;52.126;20.638;2023-09-19T05:55:04;57474.81;;;-144.78;57.35
55994;BME280;67425;52.126;20.638;2023-09-19T05:57:32;57476.88;;;-144.78;57.02
55994;BME280;67425;52.126;20.638;2023-09-19T05:59:57;57493.50;;;-144.78;57.42
55994;BME280;67425;52.126;20.638;2023-09-19T06:02:23;57493.50;;;-144.78;57.58
55994;BME280;67425;52.126;20.638;2023-09-19T06:04:48;57485.19;;;-144.78;57.28
55994;BME280;67425;52.126;20.638;2023-09-19T06:07:14;57497.66;;;-144.78;58.07
55994;BME280;67425;52.126;20.638;2023-09-19T06:09:40;57478.97;;;-144.78;57.35
55994;BME280;67425;52.126;20.638;2023-09-19T06:12:06;57512.19;;;-144.78;57.53
55994;BME280;67425;52.126;20.638;2023-09-19T06:14:31;57497.66;;;-144.78;57.90
55994;BME280;67425;52.126;20.638;2023-09-19T06:16:56;57485.19;;;-144.78;57.22
55994;BME280;67425;52.126;20.638;2023-09-19T06:19:22;57483.13;;;-144.78;56.98
55994;BME280;67425;52.126;20.638;2023-09-19T06:21:48;57470.66;;;-144.78;56.48
55994;BME280;67425;52.126;20.638;2023-09-19T06:24:14;57476.88;;;-144.78;57.13
55994;BME280;67425;52.126;20.638;2023-09-19T06:26:40;57485.19;;;-144.78;56.70
55994;BME280;67425;52.126;20.638;2023-09-19T06:29:05;57514.25;;;-144.78;56.02
55994;BME280;67425;52.126;20.638;2023-09-19T06:31:32;57481.03;;;-144.78;55.71
55994;BME280;67425;52.126;20.638;2023-09-19T06:33:58;57481.03;;;-144.78;55.52
55994;BME280;67425;52.126;20.638;2023-09-19T06:36:23;57476.88;;;-144.78;55.95
55994;BME280;67425;52.126;20.638;2023-09-19T06:38:49;57447.81;;;-144.78;54.91
55994;BME280;67425;52.126;20.638;2023-09-19T06:41:16;57470.66;;;-144.78;55.30
55994;BME280;67425;52.126;20.638;2023-09-19T06:43:42;57437.44;;;-144.78;55.32
55994;BME280;67425;52.126;20.638;2023-09-19T06:46:07;57487.28;;;-144.78;54.59
55994;BME280;67425;52.126;20.638;2023-09-19T06:48:33;57487.28;;;-144.78;55.02
55994;BME280;67425;52.126;20.638;2023-09-19T06:50:59;57456.13;;;-144.78;54.63
55994;BME280;67425;52.126;20.638;2023-09-19T06:53:29;57518.41;;;-144.78;55.48
55994;BME280;67425;52.126;20.638;2023-09-19T06:55:57;57478.97;;;-144.78;55.86
55994;BME280;67425;52.126;20.638;2023-09-19T06:58:22;57489.34;;;-144.78;54.96
55994;BME280;67425;52.126;20.638;2023-09-19T07:00:47;57464.41;;;-144.78;55.39
55994;BME280;67425;52.126;20.638;2023-09-19T07:03:15;57447.81;;;-144.78;55.93
55994;BME280;67425;52.126;20.638;2023-09-19T07:05:44;57485.19;;;-144.78;55.45
55994;BME280;67425;52.126;20.638;2023-09-19T07:08:10;57441.59;;;-144.78;55.31
55994;BME280;67425;52.126;20.638;2023-09-19T07:10:39;57481.03;;;-144.78;55.47
55994;BME280;67425;52.126;20.638;2023-09-19T07:13:15;57460.28;;;-144.78;55.11
55994;BME280;67425;52.126;20.638;2023-09-19T07:15:43;57451.97;;;-144.78;55.47
55994;BME280;67425;52.126;20.638;2023-09-19T07:18:13;57451.97;;;-144.78;54.78
55994;BME280;67425;52.126;20.638;2023-09-19T07:20:40;57487.28;;;-144.78;55.33
55994;BME280;67425;52.126;20.638;2023-09-19T07:23:11;57472.72;;;-144.78;54.64
55994;BME280;67425;52.126;20.638;2023-09-19T07:25:36;57476.88;;;-144.78;55.95
55994;BME280;67425;52.126;20.638;2023-09-19T07:28:01;57443.66;;;-144.78;55.01
55994;BME280;67425;52.126;20.638;2023-09-19T07:30:27;57489.34;;;-144.78;56.28
55994;BME280;67425;52.126;20.638;2023-09-19T07:32:53;57468.56;;;-144.78;56.68
55994;BME280;67425;52.126;20.638;2023-09-19T07:35:18;57476.88;;;-144.78;56.68
55994;BME280;67425;52.126;20.638;2023-09-19T07:37:47;57443.66;;;-144.78;56.19
55994;BME280;67425;52.126;20.638;2023-09-19T07:40:21;57470.66;;;-144.78;55.80
55994;BME280;67425;52.126;20.638;2023-09-19T07:42:46;57503.88;;;-144.78;57.30
55994;BME280;67425;52.126;20.638;2023-09-19T07:45:12;57481.03;;;-144.78;57.34
55994;BME280;67425;52.126;20.638;2023-09-19T07:47:49;57460.28;;;-144.78;57.73
55994;BME280;67425;52.126;20.638;2023-09-19T07:50:16;57478.97;;;-144.78;57.05
55994;BME280;67425;52.126;20.638;2023-09-19T07:52:43;57485.19;;;-144.78;56.95
55994;BME280;67425;52.126;20.638;2023-09-19T07:55:10;57481.03;;;-144.78;57.42
55994;BME280;67425;52.126;20.638;2023-09-19T07:57:42;57462.34;;;-144.78;58.32
55994;BME280;67425;52.126;20.638;2023-09-19T08:00:08;57449.88;;;-144.78;58.02
55994;BME280;67425;52.126;20.638;2023-09-19T08:02:39;57481.03;;;-144.78;57.06
55994;BME280;67425;52.126;20.638;2023-09-19T08:05:04;57481.03;;;-144.78;57.64
55994;BME280;67425;52.126;20.638;2023-09-19T08:07:37;57472.72;;;-144.78;57.71
55994;BME280;67425;52.126;20.638;2023-09-19T08:10:07;57491.41;;;-144.78;57.70
55994;BME280;67425;52.126;20.638;2023-09-19T08:12:34;57508.03;;;-144.78;58.16
55994;BME280;67425;52.126;20.638;2023-09-19T08:15:02;57468.56;;;-144.78;58.26
55994;BME280;67425;52.126;20.638;2023-09-19T08:17:28;57485.19;;;-144.78;58.52
55994;BME280;67425;52.126;20.638;2023-09-19T08:19:53;57497.66;;;-144.78;60.13
55994;BME280;67425;52.126;20.638;2023-09-19T08:22:19;57510.13;;;-144.78;59.26
55994;BME280;67425;52.126;20.638;2023-09-19T08:24:46;57495.56;;;-144.78;59.20
55994;BME280;67425;52.126;20.638;2023-09-19T08:27:13;57535.03;;;-144.78;62.13
55994;BME280;67425;52.126;20.638;2023-09-19T08:29:38;57547.50;;;-144.78;62.06
55994;BME280;67425;52.126;20.638;2023-09-19T08:32:04;57514.25;;;-144.78;61.97
55994;BME280;67425;52.126;20.638;2023-09-19T08:34:29;57493.50;;;-144.78;61.38
55994;BME280;67425;52.126;20.638;2023-09-19T08:36:59;57489.34;;;-144.78;61.56
55994;BME280;67425;52.126;20.638;2023-09-19T08:39:25;57528.81;;;-144.78;61.53
55994;BME280;67425;52.126;20.638;2023-09-19T08:41:58;57497.66;;;-144.78;62.12
55994;BME280;67425;52.126;20.638;2023-09-19T08:44:24;57478.97;;;-144.78;60.47
55994;BME280;67425;52.126;20.638;2023-09-19T08:46:54;57487.28;;;-144.78;60.80
55994;BME280;67425;52.126;20.638;2023-09-19T08:49:27;57499.72;;;-144.78;62.25
55994;BME280;67425;52.126;20.638;2023-09-19T08:52:20;57462.34;;;-144.78;61.13
55994;BME280;67425;52.126;20.638;2023-09-19T08:54:48;57476.88;;;-144.78;60.67
55994;BME280;67425;52.126;20.638;2023-09-19T08:57:17;57495.56;;;-144.78;61.02
55994;BME280;67425;52.126;20.638;2023-09-19T08:59:47;57481.03;;;-144.78;61.90
55994;BME280;67425;52.126;20.638;2023-09-19T09:02:14;57510.13;;;-144.78;62.02
55994;BME280;67425;52.126;20.638;2023-09-19T09:04:43;57489.34;;;-144.78;61.78
55994;BME280;67425;52.126;20.638;2023-09-19T09:07:13;57514.25;;;-144.78;65.28
55994;BME280;67425;52.126;20.638;2023-09-19T09:09:39;57493.50;;;-144.78;65.88
55994;BME280;67425;52.126;20.638;2023-09-19T09:12:12;57493.50;;;-144.78;68.51
55994;BME280;67425;52.126;20.638;2023-09-19T09:14:44;57493.50;;;-144.78;67.27
55994;BME280;67425;52.126;20.638;2023-09-19T09:17:10;57518.41;;;-144.78;67.38
55994;BME280;67425;52.126;20.638;2023-09-19T09:19:36;57518.41;;;-144.78;67.18
55994;BME280;67425;52.126;20.638;2023-09-19T09:22:09;57524.66;;;-144.78;66.62
55994;BME280;67425;52.126;20.638;2023-09-19T09:24:34;57520.50;;;-144.78;66.56
55994;BME280;67425;52.126;20.638;2023-09-19T09:27:04;57524.66;;;-144.78;67.09
55994;BME280;67425;52.126;20.638;2023-09-19T09:29:48;57505.97;;;-144.78;66.79
55994;BME280;67425;52.126;20.638;2023-09-19T09:34:53;57514.25;;;-144.78;68.09
55994;BME280;67425;52.126;20.638;2023-09-19T09:37:19;57491.41;;;-144.78;68.97
55994;BME280;67425;52.126;20.638;2023-09-19T09:39:52;57481.03;;;-144.78;68.72
55994;BME280;67425;52.126;20.638;2023-09-19T09:42:30;57483.13;;;-144.78;67.72
55994;BME280;67425;52.126;20.638;2023-09-19T09:45:19;57505.97;;;-144.78;68.03
55994;BME280;67425;52.126;20.638;2023-09-19T09:47:53;57503.88;;;-144.78;68.42
55994;BME280;67425;52.126;20.638;2023-09-19T09:50:32;57497.66;;;-144.78;68.00
55994;BME280;67425;52.126;20.638;2023-09-19T09:53:26;57489.34;;;-144.78;68.73
55994;BME280;67425;52.126;20.638;2023-09-19T09:56:09;57493.50;;;-144.78;68.07
55994;BME280;67425;52.126;20.638;2023-09-19T09:58:49;57478.97;;;-144.78;67.91
55994;BME280;67425;52.126;20.638;2023-09-19T10:01:14;57464.41;;;-144.78;67.52
55994;BME280;67425;52.126;20.638;2023-09-19T10:03:41;57489.34;;;-144.78;67.94
55994;BME280;67425;52.126;20.638;2023-09-19T10:06:14;57497.66;;;-144.78;68.26
55994;BME280;67425;52.126;20.638;2023-09-19T10:09:07;57520.50;;;-144.78;68.28
55994;BME280;67425;52.126;20.638;2023-09-19T10:11:43;57512.19;;;-144.78;67.85
55994;BME280;67425;52.126;20.638;2023-09-19T10:14:10;57495.56;;;-144.78;68.41
55994;BME280;67425;52.126;20.638;2023-09-19T10:16:40;57495.56;;;-144.78;67.37
55994;BME280;67425;52.126;20.638;2023-09-19T10:19:08;57505.97;;;-144.78;67.80
55994;BME280;67425;52.126;20.638;2023-09-19T10:21:36;57456.13;;;-144.78;67.75
55994;BME280;67425;52.126;20.638;2023-09-19T10:24:03;57508.03;;;-144.78;67.85
55994;BME280;67425;52.126;20.638;2023-09-19T10:26:34;57468.56;;;-144.78;67.02
55994;BME280;67425;52.126;20.638;2023-09-19T10:29:01;57508.03;;;-144.78;65.96
55994;BME280;67425;52.126;20.638;2023-09-19T10:31:29;57510.13;;;-144.78;66.35
55994;BME280;67425;52.126;20.638;2023-09-19T10:34:02;57472.72;;;-144.78;66.19
55994;BME280;67425;52.126;20.638;2023-09-19T10:36:32;57481.03;;;-144.78;66.12
55994;BME280;67425;52.126;20.638;2023-09-19T10:39:01;57485.19;;;-144.78;66.64
55994;BME280;67425;52.126;20.638;2023-09-19T10:41:31;57456.13;;;-144.78;66.66
55994;BME280;67425;52.126;20.638;2023-09-19T10:44:03;57481.03;;;-144.78;66.08
55994;BME280;67425;52.126;20.638;2023-09-19T10:46:31;57495.56;;;-144.78;66.17
55994;BME280;67425;52.126;20.638;2023-09-19T10:49:01;57512.19;;;-144.78;66.44
55994;BME280;67425;52.126;20.638;2023-09-19T10:51:37;57487.28;;;-144.78;65.88
55994;BME280;67425;52.126;20.638;2023-09-19T10:54:10;57508.03;;;-144.78;65.48
55994;BME280;67425;52.126;20.638;2023-09-19T10:56:47;57481.03;;;-144.78;64.15
55994;BME280;67425;52.126;20.638;2023-09-19T10:59:16;57464.41;;;-144.78;64.07
55994;BME280;67425;52.126;20.638;2023-09-19T11:04:35;57478.97;;;-144.78;63.44
55994;BME280;67425;52.126;20.638;2023-09-19T11:07:04;57445.72;;;-144.78;64.38
55994;BME280;67425;52.126;20.638;2023-09-19T11:14:54;57460.28;;;-144.78;63.60
55994;BME280;67425;52.126;20.638;2023-09-19T11:36:10;57483.13;;;-144.78;63.40
55994;BME280;67425;52.126;20.638;2023-09-19T11:43:50;57512.19;;;-144.78;64.98
55994;BME280;67425;52.126;20.638;2023-09-19T11:46:16;57491.41;;;-144.78;64.04
55994;BME280;67425;52.126;20.638;2023-09-19T11:48:48;57497.66;;;-144.78;65.07
55994;BME280;67425;52.126;20.638;2023-09-19T11:51:16;57497.66;;;-144.78;65.51
55994;BME280;67425;52.126;20.638;2023-09-19T11:53:47;57489.34;;;-144.78;64.47
55994;BME280;67425;52.126;20.638;2023-09-19T11:56:15;57491.41;;;-144.78;65.64
55994;BME280;67425;52.126;20.638;2023-09-19T11:58:43;57516.34;;;-144.78;64.57
55994;BME280;67425;52.126;20.638;2023-09-19T12:01:12;57520.50;;;-144.78;64.70
55994;BME280;67425;52.126;20.638;2023-09-19T12:03:42;57520.50;;;-144.78;65.09
55994;BME280;67425;52.126;20.638;2023-09-19T12:06:11;57499.72;;;-144.78;65.16
55994;BME280;67425;52.126;20.638;2023-09-19T12:08:40;57497.66;;;-144.78;65.81
55994;BME280;67425;52.126;20.638;2023-09-19T12:11:11;57487.28;;;-144.78;66.00
55994;BME280;67425;52.126;20.638;2023-09-19T12:13:41;57499.72;;;-144.78;65.65
55994;BME280;67425;52.126;20.638;2023-09-19T12:16:17;57493.50;;;-144.78;64.81
55994;BME280;67425;52.126;20.638;2023-09-19T12:18:44;57483.13;;;-144.78;64.95
55994;BME280;67425;52.126;20.638;2023-09-19T12:21:30;57474.81;;;-144.78;64.77
55994;BME280;67425;52.126;20.638;2023-09-19T12:24:06;57462.34;;;-144.78;64.56
55994;BME280;67425;52.126;20.638;2023-09-19T12:26:43;57468.56;;;-144.78;64.67
55994;BME280;67425;52.126;20.638;2023-09-19T12:29:20;57497.66;;;-144.78;64.50
55994;BME280;67425;52.126;20.638;2023-09-19T12:31:50;57472.72;;;-144.78;64.10
55994;BME280;67425;52.126;20.638;2023-09-19T12:34:20;57476.88;;;-144.78;64.36
55994;BME280;67425;52.126;20.638;2023-09-19T12:36:46;57474.81;;;-144.78;64.78
55994;BME280;67425;52.126;20.638;2023-09-19T12:39:22;57485.19;;;-144.78;63.19
55994;BME280;67425;52.126;20.638;2023-09-19T12:41:48;57458.19;;;-144.78;63.55
55994;BME280;67425;52.126;20.638;2023-09-19T12:44:15;57451.97;;;-144.78;64.47
55994;BME280;67425;52.126;20.638;2023-09-19T12:46:43;57514.25;;;-144.78;64.30
55994;BME280;67425;52.126;20.638;2023-09-19T12:51:47;57460.28;;;-144.78;64.98
55994;BME280;67425;52.126;20.638;2023-09-19T12:54:13;57491.41;;;-144.78;65.29
55994;BME280;67425;52.126;20.638;2023-09-19T12:56:45;57447.81;;;-144.78;64.27
55994;BME280;67425;52.126;20.638;2023-09-19T12:59:13;57451.97;;;-144.78;64.70
55994;BME280;67425;52.126;20.638;2023-09-19T13:01:42;57487.28;;;-144.78;65.10
55994;BME280;67425;52.126;20.638;2023-09-19T13:04:19;57485.19;;;-144.78;65.29
55994;BME280;67425;52.126;20.638;2023-09-19T13:06:49;57491.41;;;-144.78;65.40
55994;BME280;67425;52.126;20.638;2023-09-19T13:09:16;57481.03;;;-144.78;65.49
55994;BME280;67425;52.126;20.638;2023-09-19T13:11:42;57481.03;;;-144.78;64.38
55994;BME280;67425;52.126;20.638;2023-09-19T13:17:03;57472.72;;;-144.78;62.96
55994;BME280;67425;52.126;20.638;2023-09-19T13:19:50;57487.28;;;-144.78;63.14
55994;BME280;67425;52.126;20.638;2023-09-19T13:22:42;57474.81;;;-144.78;62.46
55994;BME280;67425;52.126;20.638;2023-09-19T13:25:09;57443.66;;;-144.78;63.26
55994;BME280;67425;52.126;20.638;2023-09-19T13:27:40;57470.66;;;-144.78;62.43
55994;BME280;67425;52.126;20.638;2023-09-19T13:30:06;57470.66;;;-144.78;62.43
55994;BME280;67425;52.126;20.638;2023-09-19T13:32:32;57483.13;;;-144.78;62.44